createdAt,value
2023-01-05T00:01:43.923Z,22.60
2023-01-05T00:04:11.263Z,19.03
2023-01-05T00:06:39.701Z,14.17
2023-01-05T00:09:13.199Z,18.73
2023-01-05T00:11:58.811Z,25.27
2023-01-05T00:14:47.543Z,18.80
2023-01-05T00:17:36.609Z,19.93
2023-01-05T00:20:25.223Z,19.63
2023-01-05T00:22:54.065Z,18.13
2023-01-05T00:25:29.431Z,23.40
2023-01-05T00:27:58.505Z,20.37
2023-01-05T00:30:38.438Z,20.03
2023-01-05T00:33:09.475Z,20.50
2023-01-05T00:35:39.374Z,20.27
2023-01-05T00:38:09.649Z,20.13
2023-01-05T00:40:39.246Z,19.97
2023-01-05T00:43:06.390Z,20.60
2023-01-05T00:45:33.811Z,20.47
2023-01-05T00:48:01.122Z,22.10
2023-01-05T00:50:30.235Z,25.67
2023-01-05T00:52:57.375Z,20.10
2023-01-05T00:55:26.847Z,22.50
2023-01-05T00:58:00.305Z,22.60
2023-01-05T01:00:27.417Z,20.80
2023-01-05T01:02:56.889Z,24.13
2023-01-05T01:05:24.032Z,22.70
2023-01-05T01:07:53.675Z,27.93
2023-01-05T01:10:20.971Z,21.00
2023-01-05T01:12:48.076Z,18.50
2023-01-05T01:15:20.099Z,25.40
2023-01-05T01:17:55.150Z,22.67
2023-01-05T01:20:22.411Z,22.17
2023-01-05T01:22:53.356Z,26.20
2023-01-05T01:25:22.968Z,23.53
2023-01-05T01:27:55.035Z,23.60
2023-01-05T01:30:22.168Z,31.27
2023-01-05T01:32:49.344Z,17.23
2023-01-05T01:35:16.506Z,21.47
2023-01-05T01:37:46.187Z,28.63
2023-01-05T01:40:14.027Z,17.50
2023-01-05T01:42:41.483Z,21.50
2023-01-05T01:45:25.139Z,20.83
2023-01-05T01:48:00.918Z,23.20
2023-01-05T01:50:39.593Z,21.27
2023-01-05T01:53:16.970Z,23.17
2023-01-05T01:55:44.802Z,19.47
2023-01-05T01:58:16.527Z,25.60
2023-01-05T02:00:46.843Z,20.03
2023-01-05T02:03:14.806Z,28.03
2023-01-05T02:05:42.171Z,26.37
2023-01-05T02:08:14.816Z,22.57
2023-01-05T02:11:00.448Z,25.13
2023-01-05T02:13:56.385Z,20.20
2023-01-05T02:17:17.913Z,27.07
2023-01-05T02:19:47.603Z,18.13
2023-01-05T02:22:42.091Z,22.70
2023-01-05T02:25:17.610Z,22.33
2023-01-05T02:28:10.366Z,23.20
2023-01-05T02:31:08.247Z,20.07
2023-01-05T02:33:57.079Z,22.57
2023-01-05T02:36:54.953Z,23.80
2023-01-05T02:39:58.388Z,26.53
2023-01-05T02:42:28.119Z,28.97
2023-01-05T02:44:55.313Z,24.17
2023-01-05T02:47:25.530Z,25.90
2023-01-05T02:50:03.070Z,21.53
2023-01-05T02:52:39.604Z,27.73
2023-01-05T02:55:14.667Z,22.63
2023-01-05T02:57:56.080Z,31.27
2023-01-05T03:00:42.847Z,26.37
2023-01-05T03:03:43.472Z,23.90
2023-01-05T03:06:18.592Z,28.23
2023-01-05T03:08:54.232Z,26.10
2023-01-05T03:11:39.967Z,26.73
2023-01-05T03:14:23.597Z,23.67
2023-01-05T03:16:53.330Z,25.00
2023-01-05T03:19:39.974Z,29.23
2023-01-05T03:22:30.140Z,21.43
2023-01-05T03:25:16.231Z,24.97
2023-01-05T03:28:03.267Z,23.53
2023-01-05T03:30:57.161Z,22.87
2023-01-05T03:33:54.752Z,18.90
2023-01-05T03:36:27.299Z,21.73
2023-01-05T03:38:57.775Z,21.63
2023-01-05T03:41:28.084Z,20.13
2023-01-05T03:43:58.748Z,17.67
2023-01-05T03:46:28.210Z,22.70
2023-01-05T03:48:55.402Z,25.83
2023-01-05T03:51:24.979Z,24.90
2023-01-05T03:53:52.122Z,26.17
2023-01-05T03:56:23.995Z,31.27
2023-01-05T03:58:53.405Z,24.43
2023-01-05T04:01:20.794Z,22.23
2023-01-05T04:03:48.250Z,25.53
2023-01-05T04:06:18.005Z,32.50
2023-01-05T04:08:45.337Z,24.00
2023-01-05T04:11:19.711Z,29.43
2023-01-05T04:13:46.931Z,25.97
2023-01-05T04:16:19.461Z,29.53
2023-01-05T04:18:46.589Z,29.20
2023-01-05T04:21:18.468Z,18.77
2023-01-05T04:23:45.653Z,27.57
2023-01-05T04:26:12.867Z,23.63
2023-01-05T04:28:42.452Z,25.87
2023-01-05T04:31:09.592Z,26.03
2023-01-05T04:33:40.149Z,24.30
2023-01-05T04:36:14.279Z,22.70
2023-01-05T04:38:45.972Z,24.30
2023-01-05T04:41:15.182Z,29.40
2023-01-05T04:43:44.479Z,28.90
2023-01-05T04:46:13.806Z,22.17
2023-01-05T04:48:40.970Z,25.73
2023-01-05T04:51:08.097Z,26.40
2023-01-05T04:53:35.309Z,20.57
2023-01-05T04:56:04.826Z,21.77
2023-01-05T04:58:34.109Z,23.83
2023-01-05T05:01:01.335Z,23.40
2023-01-05T05:03:32.945Z,24.30
2023-01-05T05:06:00.896Z,24.27
2023-01-05T05:08:30.557Z,20.07
2023-01-05T05:10:59.985Z,24.80
2023-01-05T05:13:29.440Z,22.10
2023-01-05T05:15:56.700Z,27.07
2023-01-05T05:18:26.502Z,28.97
2023-01-05T05:20:58.139Z,25.37
2023-01-05T05:23:25.328Z,28.53
2023-01-05T05:25:53.379Z,21.03
2023-01-05T05:28:28.021Z,28.77
2023-01-05T05:31:00.577Z,20.90
2023-01-05T05:33:32.385Z,27.50
2023-01-05T05:36:01.779Z,23.30
2023-01-05T05:38:28.874Z,23.30
2023-01-05T05:40:56.269Z,20.67
2023-01-05T05:43:23.454Z,27.77
2023-01-05T05:45:52.933Z,20.13
2023-01-05T05:48:25.041Z,25.37
2023-01-05T05:50:52.392Z,26.90
2023-01-05T05:53:19.973Z,21.33
2023-01-05T05:55:51.087Z,29.13
2023-01-05T05:58:19.267Z,30.70
2023-01-05T06:00:49.656Z,17.83
2023-01-05T06:03:16.894Z,31.00
2023-01-05T06:05:49.017Z,25.27
2023-01-05T06:08:18.539Z,25.43
2023-01-05T06:10:45.726Z,29.63
2023-01-05T06:13:12.885Z,20.80
2023-01-05T06:15:40.081Z,31.40
2023-01-05T06:18:07.201Z,33.77
2023-01-05T06:20:34.807Z,26.63
2023-01-05T06:23:04.794Z,28.87
2023-01-05T06:25:32.018Z,33.43
2023-01-05T06:28:01.736Z,30.80
2023-01-05T06:30:31.290Z,27.20
2023-01-05T06:33:01.135Z,25.70
2023-01-05T06:35:28.309Z,31.17
2023-01-05T06:37:55.665Z,27.77
2023-01-05T06:40:23.535Z,25.93
2023-01-05T06:42:52.905Z,27.67
2023-01-05T06:45:20.149Z,25.50
2023-01-05T06:47:50.384Z,29.97
2023-01-05T06:50:17.673Z,36.40
2023-01-05T06:52:47.385Z,25.60
2023-01-05T06:55:14.615Z,32.10
2023-01-05T06:57:41.755Z,36.83
2023-01-05T07:00:11.417Z,27.57
2023-01-05T07:02:38.712Z,24.47
2023-01-05T07:05:11.567Z,29.13
2023-01-05T07:07:41.234Z,30.10
2023-01-05T07:10:11.009Z,30.87
2023-01-05T07:12:38.251Z,29.93
2023-01-05T07:15:08.863Z,20.33
2023-01-05T07:17:36.672Z,31.60
2023-01-05T07:20:07.936Z,24.17
2023-01-05T07:22:39.486Z,25.20
2023-01-05T07:25:07.084Z,25.80
2023-01-05T07:27:34.249Z,27.50
2023-01-05T07:30:01.501Z,27.27
2023-01-05T07:32:30.775Z,28.53
2023-01-05T07:35:02.144Z,28.10
2023-01-05T07:37:31.374Z,25.60
2023-01-05T07:39:58.502Z,23.50
2023-01-05T07:42:26.160Z,27.40
2023-01-05T07:44:53.358Z,32.63
2023-01-05T07:47:20.562Z,26.27
2023-01-05T07:49:47.825Z,27.20
2023-01-05T07:52:17.810Z,25.03
2023-01-05T07:54:45.342Z,28.00
2023-01-05T07:57:14.563Z,18.87
2023-01-05T07:59:41.701Z,28.60
2023-01-05T08:02:12.180Z,28.60
2023-01-05T08:04:41.922Z,22.90
2023-01-05T08:07:12.173Z,25.97
2023-01-05T08:10:00.147Z,21.73
2023-01-05T08:12:29.430Z,28.60
2023-01-05T08:15:01.791Z,24.87
2023-01-05T08:17:28.966Z,21.83
2023-01-05T08:19:56.130Z,21.07
2023-01-05T08:22:23.257Z,28.27
2023-01-05T08:24:52.574Z,27.10
2023-01-05T08:27:22.786Z,28.57
2023-01-05T08:29:49.940Z,26.60
2023-01-05T08:32:20.200Z,23.30
2023-01-05T08:34:53.515Z,29.47
2023-01-05T08:37:22.448Z,30.20
2023-01-05T08:39:52.018Z,24.20
2023-01-05T08:42:19.156Z,21.57
2023-01-05T08:44:48.809Z,25.20
2023-01-05T08:47:18.294Z,28.03
2023-01-05T08:49:45.873Z,25.10
2023-01-05T08:52:15.513Z,20.43
2023-01-05T08:54:43.855Z,29.60
2023-01-05T08:57:17.106Z,29.83
2023-01-05T08:59:47.249Z,23.80
2023-01-05T09:02:16.156Z,23.93
2023-01-05T09:04:48.796Z,25.60
2023-01-05T09:07:18.520Z,22.60
2023-01-05T09:09:45.803Z,27.23
2023-01-05T09:12:17.964Z,22.87
2023-01-05T09:14:45.288Z,21.33
2023-01-05T09:17:12.584Z,19.93
2023-01-05T09:19:39.789Z,27.20
2023-01-05T09:22:14.219Z,21.63
2023-01-05T09:24:43.661Z,21.03
2023-01-05T09:27:10.859Z,30.93
2023-01-05T09:29:40.168Z,23.80
2023-01-05T09:32:07.720Z,22.83
2023-01-05T09:34:34.953Z,25.07
2023-01-05T09:37:04.205Z,25.07
2023-01-05T09:39:31.577Z,30.70
2023-01-05T09:42:06.004Z,26.17
2023-01-05T09:44:39.363Z,22.43
2023-01-05T09:47:26.829Z,25.37
2023-01-05T09:49:57.582Z,27.40
2023-01-05T09:52:25.919Z,29.13
2023-01-05T09:54:53.321Z,21.27
2023-01-05T09:57:27.407Z,29.40
2023-01-05T10:00:01.844Z,30.13
2023-01-05T10:02:50.456Z,26.57
2023-01-05T10:05:24.376Z,25.20
2023-01-05T10:08:04.011Z,25.87
2023-01-05T10:10:46.254Z,24.93
2023-01-05T10:13:31.611Z,26.50
2023-01-05T10:15:58.771Z,33.90
2023-01-05T10:18:30.946Z,29.20
2023-01-05T10:21:03.841Z,28.77
2023-01-05T10:23:40.139Z,30.27
2023-01-05T10:26:20.049Z,24.70
2023-01-05T10:29:10.453Z,27.27
2023-01-05T10:31:48.259Z,28.63
2023-01-05T10:34:36.414Z,22.23
2023-01-05T10:37:22.517Z,26.80
2023-01-05T10:40:37.717Z,27.93
2023-01-05T10:43:51.627Z,21.20
2023-01-05T10:46:34.959Z,23.70
2023-01-05T10:49:08.407Z,28.40
2023-01-05T10:51:36.717Z,22.17
2023-01-05T10:54:06.810Z,27.53
2023-01-05T10:56:33.967Z,29.87
2023-01-05T10:59:15.633Z,29.53
2023-01-05T11:01:46.716Z,24.43
2023-01-05T11:04:33.705Z,25.40
2023-01-05T11:07:07.228Z,24.40
2023-01-05T11:09:40.084Z,27.10
2023-01-05T11:12:19.124Z,22.73
2023-01-05T11:14:58.187Z,29.03
2023-01-05T11:17:28.750Z,27.67
2023-01-05T11:20:00.229Z,20.83
2023-01-05T11:22:30.159Z,26.63
2023-01-05T11:25:28.012Z,28.67
2023-01-05T11:28:16.586Z,27.27
2023-01-05T11:31:02.436Z,20.80
2023-01-05T11:33:33.705Z,25.40
2023-01-05T11:36:06.304Z,22.37
2023-01-05T11:38:34.603Z,34.57
2023-01-05T11:41:10.966Z,27.77
2023-01-05T11:43:40.532Z,21.87
2023-01-05T11:46:15.003Z,26.23
2023-01-05T11:48:56.778Z,22.97
2023-01-05T11:51:40.801Z,24.67
2023-01-05T11:54:32.222Z,20.90
2023-01-05T11:57:19.096Z,29.20
2023-01-05T11:59:51.067Z,23.87
2023-01-05T12:02:30.432Z,28.37
2023-01-05T12:05:10.367Z,21.47
2023-01-05T12:07:48.396Z,26.63
2023-01-05T12:10:39.074Z,23.17
2023-01-05T12:13:20.544Z,27.83
2023-01-05T12:16:05.410Z,25.80
2023-01-05T12:18:47.190Z,25.60
2023-01-05T12:21:30.152Z,28.27
2023-01-05T12:24:24.006Z,26.33
2023-01-05T12:27:06.598Z,27.37
2023-01-05T12:31:34.472Z,24.23
2023-01-05T12:36:11.855Z,25.00
2023-01-05T12:39:05.058Z,25.83
2023-01-05T12:41:54.176Z,24.77
2023-01-05T12:44:38.372Z,26.77
2023-01-05T12:47:30.419Z,23.97
2023-01-05T12:50:12.399Z,30.43
2023-01-05T12:52:45.656Z,20.23
2023-01-05T12:55:20.299Z,25.40
2023-01-05T12:57:54.269Z,23.97
2023-01-05T13:00:25.194Z,30.57
2023-01-05T13:02:59.881Z,27.03
2023-01-05T13:05:46.025Z,28.60
2023-01-05T13:08:18.910Z,21.83
2023-01-05T13:10:59.090Z,35.17
2023-01-05T13:13:41.477Z,24.83
2023-01-05T13:16:08.756Z,24.90
2023-01-05T13:18:43.648Z,29.67
2023-01-05T13:21:15.295Z,23.30
2023-01-05T13:23:47.594Z,28.47
2023-01-05T13:26:19.510Z,24.87
2023-01-05T13:28:48.531Z,19.30
2023-01-05T13:31:24.583Z,23.20
2023-01-05T13:34:19.903Z,17.17
2023-01-05T13:37:08.858Z,21.50
2023-01-05T13:39:44.991Z,23.23
2023-01-05T13:42:34.356Z,25.03
2023-01-05T13:45:07.750Z,17.10
2023-01-05T13:48:07.284Z,22.23
2023-01-05T13:50:56.232Z,23.10
2023-01-05T13:53:30.001Z,22.50
2023-01-05T13:56:14.254Z,25.80
2023-01-05T13:58:47.498Z,23.60
2023-01-05T14:01:19.129Z,26.10
2023-01-05T14:03:54.984Z,22.30
2023-01-05T14:06:32.063Z,25.40
2023-01-05T14:09:12.803Z,27.33
2023-01-05T14:12:05.817Z,25.90
2023-01-05T14:15:00.466Z,23.10
2023-01-05T14:17:53.259Z,20.27
2023-01-05T14:20:33.730Z,17.90
2023-01-05T14:23:23.185Z,22.93
2023-01-05T14:26:08.161Z,17.43
2023-01-05T14:28:38.971Z,15.53
2023-01-05T14:31:15.439Z,16.27
2023-01-05T14:34:03.469Z,15.97
2023-01-05T14:36:46.315Z,17.47
2023-01-05T14:39:19.414Z,18.07
2023-01-05T14:42:19.365Z,11.23
2023-01-05T14:44:52.228Z,11.97
2023-01-05T14:47:42.173Z,12.27
2023-01-05T14:50:33.778Z,13.53
2023-01-05T14:53:09.782Z,11.03
2023-01-05T14:56:04.283Z,12.77
2023-01-05T14:58:43.342Z,11.30
2023-01-05T15:01:16.750Z,10.97
2023-01-05T15:04:07.928Z,11.30
2023-01-05T15:06:35.026Z,9.07
2023-01-05T15:09:14.220Z,10.60
2023-01-05T15:11:56.885Z,10.53
2023-01-05T15:14:54.392Z,8.97
2023-01-05T15:17:48.054Z,6.47
2023-01-05T15:20:24.485Z,9.03
2023-01-05T15:23:16.389Z,8.37
2023-01-05T15:26:02.987Z,6.40
2023-01-05T15:29:07.221Z,5.33
2023-01-05T15:31:42.088Z,5.77
2023-01-05T15:34:34.579Z,5.20
2023-01-05T15:37:05.382Z,3.70
2023-01-05T15:39:44.715Z,4.70
2023-01-05T15:42:26.060Z,7.07
2023-01-05T15:44:56.659Z,5.67
2023-01-05T15:47:27.505Z,9.00
2023-01-05T15:50:00.342Z,8.80
2023-01-05T15:52:35.385Z,6.40
2023-01-05T15:55:17.218Z,5.33
2023-01-05T15:58:03.450Z,4.47
2023-01-05T16:00:36.561Z,6.07
2023-01-05T16:03:20.910Z,4.13
2023-01-05T16:05:57.314Z,5.40
2023-01-05T16:08:24.951Z,5.03
2023-01-05T16:11:00.889Z,5.63
2023-01-05T16:13:44.029Z,5.20
2023-01-05T16:16:50.573Z,4.77
2023-01-05T16:19:33.982Z,5.47
2023-01-05T16:22:24.693Z,7.23
2023-01-05T16:25:19.525Z,5.40
2023-01-05T16:27:58.458Z,3.73
2023-01-05T16:30:40.400Z,3.07
2023-01-05T16:33:34.785Z,3.17
2023-01-05T16:36:09.332Z,2.97
2023-01-05T16:38:37.341Z,3.63
2023-01-05T16:41:10.225Z,4.30
2023-01-05T16:43:49.352Z,4.70
2023-01-05T16:46:18.980Z,4.20
2023-01-05T16:49:24.807Z,4.07
2023-01-05T16:51:54.966Z,4.03
2023-01-05T16:54:36.679Z,2.87
2023-01-05T16:57:39.656Z,4.13
2023-01-05T17:00:28.397Z,3.93
2023-01-05T17:03:01.778Z,4.00
2023-01-05T17:05:34.198Z,5.03
2023-01-05T17:08:16.427Z,5.33
2023-01-05T17:10:46.082Z,4.10
2023-01-05T17:13:22.047Z,3.37
2023-01-05T17:15:51.368Z,2.93
2023-01-05T17:18:24.137Z,4.23
2023-01-05T17:20:53.440Z,3.10
2023-01-05T17:23:46.933Z,3.13
2023-01-05T17:26:32.871Z,4.13
2023-01-05T17:31:35.258Z,2.57
2023-01-05T17:34:02.573Z,2.67
2023-01-05T17:36:34.355Z,2.07
2023-01-05T17:39:02.227Z,1.77
2023-01-05T17:41:29.393Z,2.07
2023-01-05T17:43:58.990Z,2.10
2023-01-05T17:46:30.808Z,2.13
2023-01-05T17:49:00.572Z,2.00
2023-01-05T17:51:32.015Z,2.90
2023-01-05T17:54:02.225Z,3.50
2023-01-05T17:56:34.216Z,2.17
2023-01-05T17:59:04.933Z,3.13
2023-01-05T18:01:33.907Z,2.77
2023-01-05T18:04:01.664Z,2.40
2023-01-05T18:06:31.158Z,2.63
2023-01-05T18:08:58.295Z,3.20
2023-01-05T18:11:25.434Z,4.30
2023-01-05T18:13:52.694Z,3.40
2023-01-05T18:16:25.720Z,3.80
2023-01-05T18:18:53.656Z,3.67
2023-01-05T18:21:22.991Z,3.40
2023-01-05T18:23:50.066Z,2.43
2023-01-05T18:26:17.236Z,3.03
2023-01-05T18:28:48.954Z,3.77
2023-01-05T18:31:20.435Z,2.77
2023-01-05T18:33:47.584Z,2.90
2023-01-05T18:36:15.476Z,3.03
2023-01-05T18:38:45.345Z,2.30
2023-01-05T18:41:14.677Z,1.83
2023-01-05T18:43:44.372Z,2.00
2023-01-05T18:46:13.742Z,2.20
2023-01-05T18:48:48.024Z,3.17
2023-01-05T18:51:15.224Z,2.40
2023-01-05T18:53:42.474Z,2.27
2023-01-05T18:56:12.230Z,2.50
2023-01-05T18:58:42.012Z,1.70
2023-01-05T19:01:16.481Z,2.73
2023-01-05T19:03:46.702Z,2.63
2023-01-05T19:06:16.415Z,3.90
2023-01-05T19:08:44.571Z,4.47
2023-01-05T19:11:26.135Z,4.73
2023-01-05T19:13:58.354Z,3.57
2023-01-05T19:16:30.038Z,3.10
2023-01-05T19:19:01.380Z,4.03
2023-01-05T19:21:36.309Z,3.47
2023-01-05T19:24:07.617Z,3.90
2023-01-05T19:26:39.291Z,3.23
2023-01-05T19:29:11.015Z,4.30
2023-01-05T19:31:41.927Z,4.63
2023-01-05T19:34:18.482Z,6.30
2023-01-05T19:36:49.167Z,4.37
2023-01-05T19:39:21.397Z,4.43
2023-01-05T19:41:51.649Z,3.13
2023-01-05T19:44:23.066Z,5.73
2023-01-05T19:46:54.388Z,4.83
2023-01-05T19:49:26.617Z,5.10
2023-01-05T19:51:54.391Z,5.33
2023-01-05T19:54:22.610Z,5.63
2023-01-05T19:56:50.790Z,5.17
2023-01-05T19:59:24.738Z,4.83
2023-01-05T20:01:53.316Z,5.50
2023-01-05T20:04:20.738Z,5.53
2023-01-05T20:06:47.869Z,6.97
2023-01-05T20:09:19.288Z,6.90
2023-01-05T20:11:54.685Z,4.63
2023-01-05T20:14:30.909Z,6.00
2023-01-05T20:17:01.391Z,6.70
2023-01-05T20:19:30.822Z,6.73
2023-01-05T20:22:02.030Z,8.00
2023-01-05T20:24:33.298Z,5.33
2023-01-05T20:27:06.752Z,7.00
2023-01-05T20:29:34.980Z,5.73
2023-01-05T20:32:19.003Z,6.67
2023-01-05T20:34:52.065Z,5.63
2023-01-05T20:37:19.726Z,5.43
2023-01-05T20:39:49.583Z,5.57
2023-01-05T20:42:19.069Z,5.90
2023-01-05T20:44:49.968Z,3.13
2023-01-05T20:47:19.543Z,4.70
2023-01-05T20:49:49.344Z,4.27
2023-01-05T20:52:17.735Z,3.20
2023-01-05T20:54:49.766Z,4.67
2023-01-05T20:57:16.929Z,7.23
2023-01-05T20:59:48.740Z,4.33
2023-01-05T21:02:28.543Z,4.07
2023-01-05T21:05:01.029Z,4.47
2023-01-05T21:07:28.301Z,5.57
2023-01-05T21:09:59.854Z,3.27
2023-01-05T21:12:29.109Z,5.03
2023-01-05T21:14:56.209Z,3.33
2023-01-05T21:17:25.514Z,5.87
2023-01-05T21:19:52.760Z,5.43
2023-01-05T21:22:22.263Z,4.67
2023-01-05T21:24:51.529Z,6.50
2023-01-05T21:27:21.014Z,3.57
2023-01-05T21:29:50.703Z,4.70
2023-01-05T21:32:20.262Z,5.70
2023-01-05T21:34:47.427Z,6.50
2023-01-05T21:37:16.965Z,4.20
2023-01-05T21:39:44.493Z,4.03
2023-01-05T21:42:34.359Z,5.00
2023-01-05T21:45:02.266Z,6.20
2023-01-05T21:47:31.794Z,3.87
2023-01-05T21:50:01.417Z,2.67
2023-01-05T21:52:47.251Z,4.60
2023-01-05T21:55:32.963Z,5.13
2023-01-05T21:58:03.436Z,3.33
2023-01-05T22:00:34.113Z,6.67
2023-01-05T22:03:01.422Z,3.93
2023-01-05T22:05:28.587Z,5.53
2023-01-05T22:08:00.688Z,3.57
2023-01-05T22:10:27.845Z,4.80
2023-01-05T22:12:55.722Z,4.00
2023-01-05T22:15:22.949Z,2.97
2023-01-05T22:17:53.065Z,4.20
2023-01-05T22:20:20.207Z,4.03
2023-01-05T22:22:49.633Z,3.50
2023-01-05T22:25:19.393Z,2.63
2023-01-05T22:27:46.554Z,3.00
2023-01-05T22:30:14.036Z,4.23
2023-01-05T22:32:43.334Z,3.00
2023-01-05T22:35:10.512Z,3.50
2023-01-05T22:37:40.187Z,3.73
2023-01-05T22:40:10.681Z,3.23
2023-01-05T22:42:37.836Z,4.67
2023-01-05T22:45:05.225Z,2.67
2023-01-05T22:47:34.381Z,3.70
2023-01-05T22:50:03.908Z,2.90
2023-01-05T22:52:35.491Z,2.70
2023-01-05T22:55:05.072Z,4.50
2023-01-05T22:57:36.349Z,3.40
2023-01-05T23:00:08.455Z,4.10
2023-01-05T23:02:35.678Z,4.43
2023-01-05T23:05:04.059Z,3.10
2023-01-05T23:07:31.390Z,2.50
2023-01-05T23:09:58.558Z,3.73
2023-01-05T23:12:25.687Z,2.67
2023-01-05T23:14:55.285Z,3.27
2023-01-05T23:17:22.457Z,3.33
2023-01-05T23:19:51.853Z,3.23
2023-01-05T23:22:21.666Z,6.37
2023-01-05T23:24:51.164Z,4.60
2023-01-05T23:27:25.058Z,2.73
2023-01-05T23:29:54.455Z,3.97
2023-01-05T23:32:21.587Z,5.83
2023-01-05T23:34:50.989Z,3.77
2023-01-05T23:37:18.107Z,3.90
2023-01-05T23:39:47.513Z,2.77
2023-01-05T23:42:32.961Z,4.37
2023-01-05T23:45:02.472Z,3.73
2023-01-05T23:47:29.630Z,3.43
2023-01-05T23:49:56.782Z,4.53
2023-01-05T23:52:23.980Z,4.20
2023-01-05T23:54:53.407Z,4.43
2023-01-05T23:57:22.979Z,5.33
2023-01-05T23:59:52.437Z,3.10
